DNKN/KAN METAR and TAF weather

Enter ICAO airport designator
Station Type Date Time Source
DNKN METAR 2019/08/19 11:00 UTC NOAA

DNKN 191100Z 18005KT CAVOK 28/21 Q1014 NOSIG


Station Type Date Time Source
DNKN Decoded METAR 2019/08/19 11:00 UTC NOAA

Station name not available
Aug 19, 2019 - 07:00 AM EDT / 2019.08.19 1100 UTC
Wind: from the S (180 degrees) at 6 MPH (5 KT):0
Visibility: greater than 7 mile(s):0
Temperature: 82 F (28 C)
Dew Point: 69 F (21 C)
Relative Humidity: 65%
Pressure (altimeter): 29.94 in. Hg (1014 hPa)
ob: DNKN 191100Z 18005KT CAVOK 28/21 Q1014 NOSIG
cycle: 11

Station Type Date Time Source
DNKN TAF 2019/08/19 06:21 UTC NOAA

TAF DNKN 190500Z 1906/2012 22012KT 8000 TSRA BKN010 FEW019CB
BECMG 1907/1909 TS BKN012 FEW020CB PROB30
TEMPO 1919/2002 06015G40KT 5000 TSRA SQ BKN009 FEW018CB
BECMG 2004/2006 NSW SCT011

Example: see airport list